Time;durP1;ratioP1;P1;durP2;ratioP2;P2;SDS_P1;SDS_P2;PMS_P1;PMS_P2;Temp;Humidity;BMP_temperature;BMP_pressure;BME280_temperature;BME280_humidity;BME280_pressure;Samples;Min_cycle;Max_cycle;Signal;HPM_P1;HPM_P2
2022/06/05 00:00:21;;;;;;;8.03;7.40;;;17.20;99.90;;;;;;5050173;28;20963;-72
2022/06/05 00:03:00;;;;;;;8.00;7.30;;;17.20;99.90;;;;;;5050665;28;20577;-72
2022/06/05 00:05:32;;;;;;;7.87;7.27;;;17.20;99.90;;;;;;5050756;28;20463;-72
2022/06/05 00:08:09;;;;;;;8.60;7.80;;;17.20;99.90;;;;;;5050312;28;20838;-72
2022/06/05 00:10:40;;;;;;;7.93;7.23;;;17.20;99.90;;;;;;5050645;28;20455;-71
2022/06/05 00:13:15;;;;;;;8.53;7.83;;;17.20;99.90;;;;;;5049995;28;20486;-72
2022/06/05 00:15:42;;;;;;;7.13;6.63;;;17.20;99.90;;;;;;5050819;28;20459;-72
2022/06/05 00:18:11;;;;;;;7.67;7.07;;;17.20;99.90;;;;;;5049850;28;20549;-72
2022/06/05 00:20:38;;;;;;;7.87;7.17;;;17.10;99.90;;;;;;5050629;28;20841;-72
2022/06/05 00:23:05;;;;;;;7.23;6.63;;;17.10;99.90;;;;;;5050585;28;20479;-72
2022/06/05 00:25:40;;;;;;;7.87;7.27;;;17.10;99.90;;;;;;5050160;28;20502;-72
2022/06/05 00:28:13;;;;;;;7.23;6.63;;;17.10;99.90;;;;;;5050019;28;20454;-71
2022/06/05 00:30:48;;;;;;;7.70;7.10;;;17.10;99.90;;;;;;5050272;28;20467;-71
2022/06/05 00:33:21;;;;;;;7.57;6.90;;;17.00;99.90;;;;;;5050396;28;20483;-71
2022/06/05 00:35:55;;;;;;;8.20;7.60;;;17.00;99.90;;;;;;5050379;28;21267;-71
2022/06/05 00:38:30;;;;;;;7.97;7.30;;;17.10;99.90;;;;;;5049601;28;20475;-71
2022/06/05 00:41:18;;;;;;;7.83;7.20;;;17.00;99.90;;;;;;5050440;28;20458;-72
2022/06/05 00:43:46;;;;;;;7.10;6.50;;;17.00;99.90;;;;;;5050256;28;20490;-71
2022/06/05 00:46:13;;;;;;;6.73;6.13;;;17.00;99.90;;;;;;5050291;28;20965;-72
2022/06/05 00:48:41;;;;;;;8.43;7.73;;;17.00;99.90;;;;;;5049605;28;20467;-71
2022/06/05 00:51:07;;;;;;;7.53;6.93;;;17.00;99.90;;;;;;5050099;28;20478;-71
2022/06/05 00:53:34;;;;;;;8.50;7.17;;;17.00;99.90;;;;;;5049878;28;20490;-71
2022/06/05 00:56:01;;;;;;;7.57;6.97;;;17.00;99.90;;;;;;5050296;28;20459;-71
2022/06/05 00:58:32;;;;;;;6.83;6.33;;;17.00;99.90;;;;;;5049187;28;20491;-71
2022/06/05 01:00:58;;;;;;;7.20;6.60;;;17.00;99.90;;;;;;5050362;28;20812;-71
2022/06/05 01:03:26;;;;;;;8.37;7.60;;;16.90;99.90;;;;;;5049920;28;20483;-72
2022/06/05 01:05:54;;;;;;;7.10;6.50;;;16.90;99.90;;;;;;5050693;28;20466;-72
2022/06/05 01:08:21;;;;;;;8.40;7.70;;;16.90;99.90;;;;;;5053302;28;20451;-72
2022/06/05 01:10:54;;;;;;;7.27;6.67;;;16.90;99.90;;;;;;5053930;28;20467;-72
2022/06/05 01:13:32;;;;;;;8.10;7.30;;;16.80;99.90;;;;;;5053414;28;20479;-72
2022/06/05 01:16:07;;;;;;;7.60;7.00;;;16.80;99.90;;;;;;5053828;28;20463;-72
2022/06/05 01:18:41;;;;;;;8.03;7.33;;;16.80;99.90;;;;;;5053093;28;20491;-72
2022/06/05 01:21:32;;;;;;;7.07;6.40;;;16.80;99.90;;;;;;5053774;28;20835;-72
2022/06/05 01:24:14;;;;;;;7.30;6.60;;;16.80;99.90;;;;;;5053803;28;20574;-72
2022/06/05 01:26:47;;;;;;;7.70;7.07;;;16.80;99.90;;;;;;5053820;28;20494;-72
2022/06/05 01:29:20;;;;;;;7.80;7.10;;;16.80;99.90;;;;;;5052932;28;20451;-72
2022/06/05 01:31:52;;;;;;;7.93;7.30;;;16.80;99.90;;;;;;5053757;28;20462;-72
2022/06/05 01:34:25;;;;;;;7.70;7.03;;;16.70;99.90;;;;;;5053589;28;20479;-72
2022/06/05 01:36:56;;;;;;;8.80;8.10;;;16.70;99.90;;;;;;5053780;28;20463;-72
2022/06/05 01:39:29;;;;;;;8.73;7.90;;;16.70;99.90;;;;;;5052539;28;20494;-72
2022/06/05 01:42:01;;;;;;;7.97;7.37;;;16.70;99.90;;;;;;5053504;28;20459;-72
2022/06/05 01:44:32;;;;;;;8.50;7.80;;;16.70;99.90;;;;;;5052936;28;20506;-72
2022/06/05 01:47:04;;;;;;;7.83;7.13;;;16.70;99.90;;;;;;5053446;28;20823;-72
2022/06/05 01:49:38;;;;;;;9.73;8.93;;;16.80;99.90;;;;;;5052535;28;20487;-72
2022/06/05 01:52:09;;;;;;;8.20;7.50;;;16.80;99.90;;;;;;5052873;28;20546;-72
2022/06/05 01:54:41;;;;;;;9.53;8.63;;;16.80;99.90;;;;;;5053044;28;20926;-72
2022/06/05 01:57:12;;;;;;;8.70;8.00;;;16.80;99.90;;;;;;5052925;28;20467;-72
2022/06/05 01:59:43;;;;;;;8.83;8.03;;;16.80;99.90;;;;;;5052595;28;20495;-72
2022/06/05 02:02:15;;;;;;;8.90;8.10;;;16.80;99.90;;;;;;5052827;28;20459;-72
2022/06/05 02:04:45;;;;;;;8.90;8.00;;;16.90;99.90;;;;;;5052961;28;20486;-72
2022/06/05 02:07:17;;;;;;;8.60;7.90;;;16.90;99.90;;;;;;5052850;28;20466;-72
2022/06/05 02:09:48;;;;;;;8.17;7.47;;;16.90;99.90;;;;;;5052394;28;20459;-72
2022/06/05 02:12:16;;;;;;;9.13;8.33;;;17.00;99.90;;;;;;5052683;28;20464;-72
2022/06/05 02:14:43;;;;;;;8.80;8.10;;;17.00;99.90;;;;;;5052724;28;20463;-72
2022/06/05 02:17:11;;;;;;;8.70;7.70;;;17.00;99.90;;;;;;5052004;28;20465;-72
2022/06/05 02:19:38;;;;;;;9.20;8.30;;;17.00;99.90;;;;;;5051407;28;21082;-72
2022/06/05 02:22:13;;;;;;;9.77;8.97;;;17.00;99.90;;;;;;5052819;28;20464;-72
2022/06/05 02:24:40;;;;;;;9.60;8.13;;;17.00;99.90;;;;;;5052398;28;21044;-72
2022/06/05 02:27:07;;;;;;;9.20;8.40;;;17.00;99.90;;;;;;5052685;28;20466;-72
2022/06/05 02:29:37;;;;;;;9.37;8.47;;;17.00;99.90;;;;;;5051934;28;20885;-72
2022/06/05 02:32:16;;;;;;;9.07;8.27;;;17.00;99.90;;;;;;5052400;28;20462;-72
2022/06/05 02:34:50;;;;;;;9.70;8.87;;;17.10;99.90;;;;;;5052596;28;20880;-72
2022/06/05 02:37:26;;;;;;;8.87;8.10;;;17.10;99.90;;;;;;5052230;28;20827;-72
2022/06/05 02:40:02;;;;;;;9.03;8.17;;;17.10;99.90;;;;;;5051846;28;20482;-72
2022/06/05 02:42:32;;;;;;;8.63;7.93;;;17.10;99.90;;;;;;5051945;28;20506;-72
2022/06/05 02:45:10;;;;;;;9.47;8.67;;;17.10;99.90;;;;;;5052280;28;20474;-72
2022/06/05 02:47:43;;;;;;;10.30;9.33;;;17.10;99.90;;;;;;5051962;28;20466;-72
2022/06/05 02:50:16;;;;;;;9.67;8.77;;;17.20;99.90;;;;;;5051599;28;20466;-72
2022/06/05 02:52:43;;;;;;;9.23;8.33;;;17.20;99.90;;;;;;5052203;28;20479;-72
2022/06/05 02:55:14;;;;;;;9.50;8.70;;;17.20;99.90;;;;;;5051776;28;20467;-72
2022/06/05 02:57:42;;;;;;;9.80;8.80;;;17.30;99.90;;;;;;5052164;28;20471;-72
2022/06/05 03:00:13;;;;;;;8.67;7.90;;;17.30;99.90;;;;;;5051207;28;20487;-72
2022/06/05 03:05:21;;;;;;;8.80;8.00;;;17.30;99.90;;;;;;5007629;28;20458;-72
2022/06/05 03:07:49;;;;;;;7.80;7.10;;;17.30;99.90;;;;;;5051834;28;20977;-72
2022/06/05 03:10:16;;;;;;;9.43;8.63;;;17.40;99.90;;;;;;5051078;28;20458;-72
2022/06/05 03:12:43;;;;;;;8.13;7.40;;;17.30;99.90;;;;;;5051695;28;20475;-71
2022/06/05 03:15:11;;;;;;;8.40;7.70;;;17.30;99.90;;;;;;5051628;28;20459;-71
2022/06/05 03:17:38;;;;;;;9.00;8.27;;;17.30;99.90;;;;;;5051366;28;20466;-72
2022/06/05 03:20:06;;;;;;;8.50;7.80;;;17.30;99.90;;;;;;5051040;28;20488;-71
2022/06/05 03:22:33;;;;;;;8.83;8.03;;;17.30;99.90;;;;;;5051064;28;20490;-71
2022/06/05 03:24:59;;;;;;;9.40;8.60;;;17.30;99.90;;;;;;5051603;28;20455;-71
2022/06/05 03:27:26;;;;;;;8.80;8.10;;;17.30;99.90;;;;;;5051325;28;20814;-71
2022/06/05 03:29:53;;;;;;;9.53;8.30;;;17.40;99.90;;;;;;5050216;28;20495;-72
2022/06/05 03:32:21;;;;;;;9.10;8.23;;;17.30;99.90;;;;;;5051098;28;20977;-72
2022/06/05 03:34:48;;;;;;;8.20;7.50;;;17.30;99.90;;;;;;5051222;28;20471;-72
2022/06/05 03:37:15;;;;;;;8.20;7.40;;;17.30;99.90;;;;;;5051204;28;20459;-72
2022/06/05 03:39:42;;;;;;;8.30;7.60;;;17.30;99.90;;;;;;5050343;28;20914;-72
2022/06/05 03:42:09;;;;;;;9.30;8.60;;;17.30;99.90;;;;;;5051132;28;20467;-72
2022/06/05 03:44:37;;;;;;;7.77;7.17;;;17.20;99.90;;;;;;5050947;28;20550;-72
2022/06/05 03:47:04;;;;;;;7.50;6.80;;;17.20;99.90;;;;;;5051010;28;20455;-72
2022/06/05 03:49:32;;;;;;;7.97;7.17;;;17.20;99.90;;;;;;5050361;28;20843;-72
2022/06/05 03:51:59;;;;;;;8.77;7.97;;;17.20;99.90;;;;;;5050757;28;20474;-72
2022/06/05 03:54:26;;;;;;;9.47;8.57;;;17.20;99.90;;;;;;5050700;28;20479;-71
2022/06/05 03:56:52;;;;;;;9.57;8.60;;;17.20;99.90;;;;;;5050942;28;20467;-72
2022/06/05 03:59:19;;;;;;;9.03;8.30;;;17.20;99.90;;;;;;5050113;28;20886;-72
2022/06/05 04:01:46;;;;;;;8.33;7.57;;;17.20;99.90;;;;;;5050823;28;20463;-72
2022/06/05 04:04:12;;;;;;;8.70;7.80;;;17.30;99.90;;;;;;5050558;28;20914;-72
2022/06/05 04:06:41;;;;;;;9.60;8.70;;;17.30;99.90;;;;;;5050731;28;20462;-72
2022/06/05 04:09:09;;;;;;;8.53;7.83;;;17.30;99.90;;;;;;5049962;28;20463;-72
2022/06/05 04:11:38;;;;;;;9.23;8.50;;;17.40;99.90;;;;;;5050907;28;20459;-72
2022/06/05 04:14:07;;;;;;;8.67;7.97;;;17.40;99.90;;;;;;5050428;28;20480;-72
2022/06/05 04:16:35;;;;;;;10.03;9.13;;;17.40;99.90;;;;;;5050616;28;20554;-72
2022/06/05 04:19:03;;;;;;;9.17;8.27;;;17.40;99.90;;;;;;5050135;28;20850;-72
2022/06/05 04:21:32;;;;;;;10.20;9.20;;;17.50;99.90;;;;;;5050273;28;20470;-72
2022/06/05 04:24:01;;;;;;;8.70;7.90;;;17.50;99.90;;;;;;5050372;28;20479;-72
2022/06/05 04:26:30;;;;;;;9.03;8.33;;;17.50;99.90;;;;;;5050155;28;20466;-72
2022/06/05 04:28:57;;;;;;;8.17;7.37;;;17.40;99.90;;;;;;5049958;28;20455;-72
2022/06/05 04:31:26;;;;;;;9.63;8.73;;;17.50;99.90;;;;;;5050104;28;20566;-72
2022/06/05 04:33:54;;;;;;;8.90;8.00;;;17.50;99.90;;;;;;5050488;28;20506;-72
2022/06/05 04:36:21;;;;;;;8.63;7.93;;;17.50;99.90;;;;;;5050372;28;20466;-72
2022/06/05 04:38:49;;;;;;;9.40;8.60;;;17.50;99.90;;;;;;5049659;28;20546;-72
2022/06/05 04:41:19;;;;;;;9.03;8.13;;;17.40;99.90;;;;;;5051795;28;20466;-72
2022/06/05 04:43:47;;;;;;;9.63;8.83;;;17.40;99.90;;;;;;5054331;28;20508;-72
2022/06/05 04:46:14;;;;;;;8.80;8.10;;;17.40;99.90;;;;;;5054535;28;20470;-72
2022/06/05 04:48:41;;;;;;;9.57;8.70;;;17.40;99.90;;;;;;5053588;28;20471;-72
2022/06/05 04:51:09;;;;;;;9.53;8.63;;;17.40;99.90;;;;;;5100144;22;20489;-93
2022/06/05 04:53:37;;;;;;;10.20;8.10;;;17.40;99.90;;;;;;5071160;22;20638;-68
2022/06/05 04:56:04;;;;;;;9.13;8.33;;;17.40;99.90;;;;;;5054150;28;20847;-68
2022/06/05 04:58:32;;;;;;;10.23;9.30;;;17.40;99.90;;;;;;5053578;28;21201;-68
2022/06/05 05:00:59;;;;;;;8.80;8.10;;;17.40;99.90;;;;;;5053981;28;20490;-69
2022/06/05 05:03:27;;;;;;;10.40;9.27;;;17.40;99.90;;;;;;5053957;28;20987;-68
2022/06/05 05:05:54;;;;;;;10.70;9.60;;;17.30;99.90;;;;;;5053899;28;20512;-69
2022/06/05 05:08:21;;;;;;;10.10;9.10;;;17.20;99.90;;;;;;5053320;28;20811;-68
2022/06/05 05:10:48;;;;;;;11.57;10.40;;;17.20;99.90;;;;;;5054045;28;20455;-69
2022/06/05 05:13:15;;;;;;;11.80;10.60;;;17.20;99.90;;;;;;5053779;28;20478;-69
2022/06/05 05:15:43;;;;;;;11.70;10.17;;;17.10;99.90;;;;;;5054311;28;20509;-69
2022/06/05 05:18:10;;;;;;;11.73;10.63;;;17.20;99.90;;;;;;5053038;28;20843;-69
2022/06/05 05:20:36;;;;;;;11.83;10.83;;;17.20;99.90;;;;;;5053930;28;20481;-69
2022/06/05 05:23:03;;;;;;;10.73;9.73;;;17.20;99.90;;;;;;5053378;28;20879;-69
2022/06/05 05:25:30;;;;;;;12.80;11.60;;;17.20;99.90;;;;;;5053692;28;20470;-68
2022/06/05 05:27:56;;;;;;;12.10;10.90;;;17.20;99.90;;;;;;5053217;28;20467;-69
2022/06/05 05:30:23;;;;;;;11.93;10.73;;;17.20;99.90;;;;;;5053253;28;20974;-68
2022/06/05 05:32:51;;;;;;;11.97;10.87;;;17.20;99.90;;;;;;5053687;28;20506;-68
2022/06/05 05:35:20;;;;;;;13.47;12.17;;;17.20;99.90;;;;;;5053239;28;20499;-68
2022/06/05 05:37:47;;;;;;;12.10;10.97;;;17.30;99.90;;;;;;5053453;28;20969;-68
2022/06/05 05:42:58;;;;;;;13.97;11.77;;;17.10;99.90;;;;;;5053471;28;20466;-68
2022/06/05 05:45:25;;;;;;;15.90;12.97;;;17.10;99.90;;;;;;5053035;28;20485;-68
2022/06/05 05:47:53;;;;;;;12.87;11.77;;;17.00;99.90;;;;;;5053329;28;20958;-68
2022/06/05 05:50:21;;;;;;;12.23;11.03;;;17.00;99.90;;;;;;5052594;28;20452;-68
2022/06/05 05:52:47;;;;;;;14.27;12.87;;;16.90;99.90;;;;;;5052968;28;20513;-69
2022/06/05 05:55:17;;;;;;;14.23;12.83;;;16.90;99.90;;;;;;5053304;28;20493;-69
2022/06/05 05:57:46;;;;;;;13.60;12.40;;;16.80;99.90;;;;;;5053053;28;20466;-69
2022/06/05 06:00:16;;;;;;;13.63;12.23;;;16.80;99.90;;;;;;5052486;28;20482;-69
2022/06/05 06:02:43;;;;;;;13.23;11.97;;;16.80;99.90;;;;;;5052944;28;20475;-69
2022/06/05 06:05:14;;;;;;;13.00;11.73;;;16.80;99.90;;;;;;5052984;28;20463;-69
2022/06/05 06:07:41;;;;;;;13.00;11.83;;;16.80;99.90;;;;;;5052784;28;20467;-69
2022/06/05 06:10:09;;;;;;;12.93;11.47;;;16.70;99.90;;;;;;5052400;28;20482;-69
2022/06/05 06:12:35;;;;;;;11.97;10.77;;;16.70;99.90;;;;;;5052575;28;20849;-68
2022/06/05 06:15:02;;;;;;;11.87;10.77;;;16.60;99.90;;;;;;5052412;28;20459;-69
2022/06/05 06:17:29;;;;;;;11.07;10.07;;;16.50;99.90;;;;;;5052679;28;20474;-68
2022/06/05 06:19:56;;;;;;;10.67;9.67;;;16.50;99.90;;;;;;5051853;28;20861;-69
2022/06/05 06:22:24;;;;;;;10.00;9.00;;;16.40;99.90;;;;;;5052345;28;20495;-69
2022/06/05 06:24:50;;;;;;;10.40;9.07;;;16.40;99.90;;;;;;5052307;28;20965;-68
2022/06/05 06:27:17;;;;;;;8.57;7.30;;;16.50;99.90;;;;;;5052044;28;20463;-69
2022/06/05 06:29:44;;;;;;;6.93;6.33;;;16.50;99.90;;;;;;5051576;28;20816;-69
2022/06/05 06:32:11;;;;;;;7.37;6.30;;;16.50;99.90;;;;;;5052284;28;20474;-68
2022/06/05 06:34:37;;;;;;;6.27;5.67;;;16.50;99.90;;;;;;5052656;28;20837;-69
2022/06/05 06:37:04;;;;;;;9.57;5.93;;;16.50;99.90;;;;;;5052119;28;20462;-69
2022/06/05 06:39:33;;;;;;;5.33;4.73;;;16.50;99.90;;;;;;5051632;28;20865;-69
2022/06/05 06:42:00;;;;;;;4.70;4.30;;;16.60;99.90;;;;;;5052083;28;20455;-69
2022/06/05 06:44:27;;;;;;;4.67;4.10;;;16.60;99.90;;;;;;5051926;28;20490;-69
2022/06/05 06:46:54;;;;;;;4.13;3.80;;;16.70;99.90;;;;;;5052004;28;20838;-69
2022/06/05 06:49:20;;;;;;;4.47;3.80;;;16.70;99.90;;;;;;5051419;28;20467;-69
2022/06/05 06:51:47;;;;;;;5.40;4.10;;;16.70;99.90;;;;;;5052102;28;20463;-69
2022/06/05 06:54:14;;;;;;;4.60;3.67;;;16.70;99.90;;;;;;5051545;28;20495;-70
2022/06/05 06:56:44;;;;;;;4.80;3.60;;;16.80;99.90;;;;;;5052189;28;20498;-69
2022/06/05 06:59:11;;;;;;;4.70;4.30;;;16.70;99.90;;;;;;5050986;28;20486;-70
2022/06/05 07:01:38;;;;;;;5.20;4.70;;;16.70;99.90;;;;;;5051860;28;20493;-69
2022/06/05 07:04:05;;;;;;;6.13;4.37;;;16.80;99.90;;;;;;5050857;28;20475;-69
2022/06/05 07:06:31;;;;;;;4.90;4.33;;;16.70;99.90;;;;;;5041485;28;20464;-69
2022/06/05 07:08:58;;;;;;;6.77;4.40;;;16.70;99.90;;;;;;5020486;28;20452;-69
2022/06/05 07:11:25;;;;;;;5.50;4.30;;;16.70;99.90;;;;;;5020899;28;20454;-69
2022/06/05 07:13:53;;;;;;;5.10;4.70;;;16.60;99.90;;;;;;5019317;28;20480;-68
2022/06/05 07:16:20;;;;;;;10.17;4.90;;;16.60;99.90;;;;;;5019991;28;20468;-69
2022/06/05 07:18:47;;;;;;;7.73;4.80;;;16.60;99.90;;;;;;5025199;28;20947;-69
2022/06/05 07:21:16;;;;;;;4.87;4.30;;;16.60;99.90;;;;;;5020393;28;20899;-69
2022/06/05 07:23:43;;;;;;;4.67;3.00;;;16.70;99.90;;;;;;5018197;28;21014;-69
2022/06/05 07:26:12;;;;;;;4.47;3.23;;;16.80;99.90;;;;;;5019600;28;20468;-69
2022/06/05 07:28:39;;;;;;;5.90;4.40;;;16.90;99.90;;;;;;5017726;28;20457;-69
2022/06/05 07:31:09;;;;;;;4.03;3.70;;;16.90;99.90;;;;;;5017969;28;20459;-70
2022/06/05 07:33:36;;;;;;;4.73;4.23;;;17.00;99.90;;;;;;5019047;28;20476;-70
2022/06/05 07:36:06;;;;;;;4.60;4.20;;;17.00;99.90;;;;;;5019158;28;20460;-70
2022/06/05 07:38:34;;;;;;;5.43;4.10;;;17.00;99.90;;;;;;5020452;28;20452;-71
2022/06/05 07:41:02;;;;;;;5.80;4.33;;;17.00;99.90;;;;;;5017158;28;20485;-71
2022/06/05 07:43:28;;;;;;;7.60;4.10;;;16.90;99.90;;;;;;5010703;28;20556;-70
2022/06/05 07:45:56;;;;;;;3.77;3.33;;;16.90;99.90;;;;;;5015999;28;20459;-70
2022/06/05 07:48:25;;;;;;;4.33;3.93;;;17.00;99.90;;;;;;5028885;28;20952;-71
2022/06/05 07:56:30;;;;;;;5.00;3.73;;;17.00;99.90;;;;;;5028617;28;20439;-70
2022/06/05 07:58:57;;;;;;;6.50;4.30;;;17.00;99.90;;;;;;5029182;28;20872;-71
2022/06/05 08:01:24;;;;;;;4.83;4.33;;;17.10;99.90;;;;;;5029247;28;20894;-71
2022/06/05 08:03:53;;;;;;;4.73;3.87;;;17.10;99.90;;;;;;5028188;28;20472;-71
2022/06/05 08:06:20;;;;;;;4.70;3.80;;;17.20;99.90;;;;;;5029617;28;20488;-70
2022/06/05 08:08:46;;;;;;;6.67;4.20;;;17.20;99.90;;;;;;5027902;28;20971;-70
2022/06/05 08:11:13;;;;;;;5.37;3.77;;;17.20;99.90;;;;;;5027316;28;20454;-69
2022/06/05 08:13:40;;;;;;;5.23;3.50;;;17.30;99.90;;;;;;5027570;28;20479;-69
2022/06/05 08:16:07;;;;;;;4.37;3.97;;;17.30;99.90;;;;;;5027593;28;20489;-69
2022/06/05 08:18:34;;;;;;;5.83;3.50;;;17.30;99.90;;;;;;5026994;28;20467;-69
2022/06/05 08:21:02;;;;;;;4.80;4.10;;;17.40;99.90;;;;;;5027659;28;20918;-69
2022/06/05 08:23:28;;;;;;;3.90;3.43;;;17.50;99.90;;;;;;5029403;28;20490;-69
2022/06/05 08:25:55;;;;;;;4.27;3.87;;;17.70;99.90;;;;;;5029992;28;20465;-67
2022/06/05 08:28:25;;;;;;;6.10;4.27;;;17.80;99.90;;;;;;5028416;28;20479;-68
2022/06/05 08:30:51;;;;;;;3.60;3.30;;;17.90;99.90;;;;;;5026844;28;20460;-67
2022/06/05 08:33:18;;;;;;;4.00;3.47;;;18.00;99.90;;;;;;5027013;28;20848;-68
2022/06/05 08:35:45;;;;;;;3.70;3.20;;;18.00;99.90;;;;;;5026996;28;20488;-68
2022/06/05 08:44:01;;;;;;;4.13;3.20;;;18.30;99.90;;;;;;5026407;28;20542;-67
2022/06/05 08:46:32;;;;;;;2.80;2.60;;;18.40;99.90;;;;;;5027300;28;20494;-68
2022/06/05 08:49:04;;;;;;;3.20;2.90;;;18.60;99.90;;;;;;5026688;28;20452;-68
2022/06/05 08:51:48;;;;;;;3.70;2.50;;;18.70;99.90;;;;;;5025857;28;20457;-67
2022/06/05 08:54:21;;;;;;;4.70;2.37;;;18.90;99.90;;;;;;5026860;28;20607;-69
2022/06/05 08:56:51;;;;;;;2.83;2.40;;;19.10;99.90;;;;;;5025653;28;20539;-69
2022/06/05 08:59:25;;;;;;;3.13;2.40;;;19.30;99.90;;;;;;5027703;28;20511;-69
2022/06/05 09:01:58;;;;;;;5.23;2.83;;;19.40;99.90;;;;;;5026245;28;20994;-69
2022/06/05 09:04:46;;;;;;;2.40;2.20;;;19.50;99.90;;;;;;5026091;28;20487;-68
2022/06/05 09:07:17;;;;;;;2.90;2.30;;;19.50;99.90;;;;;;5026360;28;20452;-69
2022/06/05 09:09:49;;;;;;;3.87;3.03;;;19.50;99.90;;;;;;5026787;28;21034;-69
2022/06/05 09:12:26;;;;;;;3.10;2.80;;;19.40;99.90;;;;;;5027862;28;20471;-68
2022/06/05 09:14:59;;;;;;;3.30;2.60;;;19.60;99.90;;;;;;5028723;28;20460;-69
2022/06/05 09:17:27;;;;;;;5.43;2.57;;;19.80;99.90;;;;;;5045151;28;20950;-69
2022/06/05 09:19:56;;;;;;;3.13;2.70;;;19.90;99.90;;;;;;5048560;28;20482;-68
2022/06/05 09:22:34;;;;;;;2.70;2.30;;;20.00;99.90;;;;;;5048548;28;21003;-69
2022/06/05 09:25:39;;;;;;;3.80;2.50;;;19.90;99.90;;;;;;5049585;28;20494;-68
2022/06/05 09:28:41;;;;;;;3.03;2.43;;;19.90;99.90;;;;;;4969673;28;20467;-69
2022/06/05 09:31:31;;;;;;;2.87;2.07;;;20.00;99.90;;;;;;5049605;28;20863;-68
2022/06/05 09:34:00;;;;;;;3.23;2.07;;;20.00;99.90;;;;;;5052249;28;20474;-69
2022/06/05 09:36:30;;;;;;;2.33;2.10;;;20.10;99.90;;;;;;5053010;28;20458;-69
2022/06/05 09:39:03;;;;;;;2.40;2.20;;;20.20;99.90;;;;;;5048394;28;20459;-68
2022/06/05 09:41:43;;;;;;;1.93;1.73;;;20.20;99.90;;;;;;5052464;28;20479;-69
2022/06/05 09:44:24;;;;;;;2.33;1.70;;;20.20;99.90;;;;;;5052524;28;20855;-69
2022/06/05 09:46:59;;;;;;;2.93;1.90;;;20.30;99.90;;;;;;5051676;28;20463;-69
2022/06/05 09:49:33;;;;;;;2.43;1.80;;;20.40;99.90;;;;;;5051693;28;20498;-69
2022/06/05 09:52:12;;;;;;;3.27;1.80;;;20.50;99.90;;;;;;5052124;28;20558;-69
2022/06/05 09:54:44;;;;;;;2.83;1.70;;;20.70;99.90;;;;;;5052135;28;20487;-70
2022/06/05 10:00:27;;;;;;;2.03;1.83;;;21.40;99.90;;;;;;5051278;28;20438;-69
2022/06/05 10:02:59;;;;;;;2.77;2.00;;;21.60;99.90;;;;;;5051808;28;21016;-70
2022/06/05 10:05:29;;;;;;;2.57;1.80;;;21.80;99.90;;;;;;5051781;28;20502;-69
2022/06/05 10:08:03;;;;;;;4.20;1.97;;;22.10;99.90;;;;;;5051419;28;20475;-69
2022/06/05 10:10:35;;;;;;;2.23;1.90;;;22.40;99.90;;;;;;5048540;28;21028;-69
2022/06/05 10:13:12;;;;;;;2.50;1.83;;;22.30;99.90;;;;;;5052427;28;20538;-70
2022/06/05 10:15:47;;;;;;;2.50;1.97;;;22.10;99.90;;;;;;5051724;28;20471;-70
2022/06/05 10:18:20;;;;;;;2.47;2.20;;;21.90;99.90;;;;;;5051115;28;20486;-70
2022/06/05 10:20:54;;;;;;;2.40;2.17;;;21.70;99.90;;;;;;5052167;28;20510;-69
2022/06/05 10:23:40;;;;;;;2.87;2.20;;;21.50;99.90;;;;;;5051012;28;20511;-69
2022/06/05 10:26:25;;;;;;;2.33;2.00;;;21.30;99.90;;;;;;5052162;28;20459;-69
2022/06/05 10:29:09;;;;;;;3.50;2.57;;;21.20;99.90;;;;;;5051320;28;20463;-69
2022/06/05 10:31:37;;;;;;;3.80;2.97;;;21.00;99.90;;;;;;5051565;28;20463;-69
2022/06/05 10:34:12;;;;;;;3.43;2.70;;;20.90;99.90;;;;;;5051217;28;20490;-69
2022/06/05 10:36:55;;;;;;;3.27;3.03;;;20.80;99.90;;;;;;5049347;28;20475;-68
2022/06/05 10:39:29;;;;;;;3.97;3.17;;;20.60;99.90;;;;;;5048887;28;20521;-69
2022/06/05 10:42:23;;;;;;;3.80;3.40;;;20.40;99.90;;;;;;5051428;28;21032;-70
2022/06/05 10:45:06;;;;;;;3.60;3.30;;;20.20;99.90;;;;;;5050669;28;20459;-68
2022/06/05 10:47:40;;;;;;;4.53;3.80;;;20.10;99.90;;;;;;5050946;28;20471;-67
2022/06/05 10:50:11;;;;;;;6.47;3.97;;;19.90;99.90;;;;;;5050596;28;20459;-68
2022/06/05 10:53:01;;;;;;;6.40;4.13;;;19.80;99.90;;;;;;5135990;22;20498;-94
2022/06/05 10:56:13;;;;;;;5.10;3.90;;;19.60;99.90;;;;;;5069394;28;20455;-94
2022/06/05 10:58:45;;;;;;;5.00;4.50;;;19.40;99.90;;;;;;5066970;28;20459;-94
2022/06/05 11:02:01;;;;;;;4.70;4.30;;;19.30;99.90;;;;;;5068165;28;20494;-93
2022/06/05 11:04:48;;;;;;;5.40;4.87;;;19.30;99.90;;;;;;5049359;28;20531;-93
2022/06/05 11:07:26;;;;;;;4.60;4.20;;;19.20;99.90;;;;;;5068206;28;20519;-95
2022/06/05 11:09:59;;;;;;;7.67;5.00;;;19.20;99.90;;;;;;5072456;28;20458;-93
2022/06/05 11:15:24;;;;;;;5.73;4.80;;;19.10;99.90;;;;;;5070891;23;20495;-68
2022/06/05 11:18:03;;;;;;;5.70;4.70;;;19.10;99.90;;;;;;5030328;28;20456;-68
2022/06/05 11:20:31;;;;;;;6.17;4.80;;;19.00;99.90;;;;;;5030398;28;20559;-69
2022/06/05 11:23:00;;;;;;;5.80;5.00;;;19.00;99.90;;;;;;5029689;28;20499;-68
2022/06/05 11:25:32;;;;;;;4.80;4.20;;;19.00;99.90;;;;;;5035523;28;20452;-69
2022/06/05 11:28:28;;;;;;;5.13;4.63;;;19.00;99.90;;;;;;5039539;28;20461;-67
2022/06/05 11:31:14;;;;;;;5.53;4.30;;;19.00;99.90;;;;;;5036358;28;20469;-69
2022/06/05 11:33:51;;;;;;;5.57;4.47;;;19.20;99.90;;;;;;5048347;28;21125;-69
2022/06/05 11:36:23;;;;;;;5.33;3.97;;;19.20;99.90;;;;;;5050890;28;20467;-69
2022/06/05 11:39:06;;;;;;;6.00;4.03;;;19.30;99.90;;;;;;5050412;28;20466;-69
2022/06/05 11:41:41;;;;;;;7.10;4.37;;;19.40;99.90;;;;;;5051070;28;20483;-69
2022/06/05 11:44:28;;;;;;;7.33;3.63;;;19.60;99.90;;;;;;5043458;28;20848;-68
2022/06/05 11:47:01;;;;;;;6.60;3.80;;;19.90;99.90;;;;;;5031036;28;20460;-69
2022/06/05 11:49:40;;;;;;;6.10;3.30;;;20.20;99.90;;;;;;5029715;28;20467;-67
2022/06/05 11:52:14;;;;;;;3.40;3.10;;;20.50;99.90;;;;;;5030855;28;20461;-70
2022/06/05 11:54:59;;;;;;;4.90;3.10;;;20.80;99.90;;;;;;5030335;28;20464;-68
2022/06/05 11:57:31;;;;;;;5.83;3.30;;;21.00;99.90;;;;;;5030738;28;20527;-68
2022/06/05 12:00:05;;;;;;;3.80;2.90;;;21.40;99.90;;;;;;5030120;28;20460;-68
2022/06/05 12:02:48;;;;;;;3.60;2.37;;;21.90;99.90;;;;;;5030416;28;20521;-68
2022/06/05 12:05:22;;;;;;;3.80;2.87;;;22.00;99.90;;;;;;5030754;28;20524;-68
2022/06/05 12:07:50;;;;;;;4.87;3.13;;;22.00;99.90;;;;;;5030635;28;20529;-69
2022/06/05 12:10:23;;;;;;;5.30;3.33;;;22.00;99.90;;;;;;5030047;28;20468;-69
2022/06/05 12:12:58;;;;;;;4.10;2.73;;;21.90;99.90;;;;;;5030321;28;20484;-68
2022/06/05 12:15:30;;;;;;;3.10;2.80;;;21.70;99.90;;;;;;5030331;28;20476;-69
2022/06/05 12:18:01;;;;;;;2.83;2.60;;;21.60;99.90;;;;;;5030278;28;20459;-68
2022/06/05 12:20:36;;;;;;;5.13;2.43;;;21.50;99.90;;;;;;5030392;28;20621;-69
2022/06/05 12:23:11;;;;;;;4.07;2.30;;;21.40;99.90;;;;;;5032970;28;20487;-70
2022/06/05 12:25:49;;;;;;;4.20;2.67;;;21.30;99.90;;;;;;5036490;28;20830;-70
2022/06/05 12:28:19;;;;;;;6.07;2.77;;;21.10;99.90;;;;;;5033768;28;20468;-72
2022/06/05 12:30:51;;;;;;;5.40;2.60;;;21.00;99.90;;;;;;5047421;28;20455;-70
2022/06/05 12:33:24;;;;;;;3.50;3.10;;;21.00;99.90;;;;;;5050173;28;20966;-73
2022/06/05 12:35:55;;;;;;;5.07;3.27;;;21.00;99.90;;;;;;5050380;28;20841;-69
2022/06/05 12:38:33;;;;;;;4.37;3.10;;;21.00;99.90;;;;;;5049643;28;20550;-71
2022/06/05 12:41:06;;;;;;;4.83;3.57;;;21.30;99.90;;;;;;5043217;28;20459;-70
2022/06/05 12:43:45;;;;;;;4.13;3.00;;;21.50;99.90;;;;;;5037359;28;20487;-70
2022/06/05 12:46:27;;;;;;;4.33;2.80;;;21.80;99.90;;;;;;5030147;28;20467;-69
2022/06/05 12:49:07;;;;;;;4.00;2.93;;;22.00;99.90;;;;;;5033636;28;20456;-70
2022/06/05 12:51:35;;;;;;;4.00;3.20;;;22.10;99.90;;;;;;5049928;28;20451;-68
2022/06/05 12:54:12;;;;;;;5.63;2.90;;;22.00;99.90;;;;;;5049622;28;20502;-68
2022/06/05 12:56:48;;;;;;;4.27;2.80;;;21.90;99.90;;;;;;5046541;28;20459;-68
2022/06/05 12:59:18;;;;;;;4.57;2.27;;;21.80;99.90;;;;;;5048658;28;20459;-69
2022/06/05 13:01:49;;;;;;;7.20;2.83;;;21.80;99.90;;;;;;5050330;28;20487;-70
2022/06/05 13:04:22;;;;;;;3.50;2.50;;;21.80;99.90;;;;;;5053079;28;20475;-70
2022/06/05 13:06:58;;;;;;;4.23;2.43;;;21.90;99.90;;;;;;5053900;28;20459;-68
2022/06/05 13:09:32;;;;;;;4.23;3.03;;;22.10;99.90;;;;;;5053159;28;20491;-69
2022/06/05 13:12:04;;;;;;;5.10;3.30;;;22.30;99.90;;;;;;5053763;28;20468;-71
2022/06/05 13:14:42;;;;;;;4.27;2.70;;;22.30;99.90;;;;;;5037194;28;20480;-70
2022/06/05 13:17:16;;;;;;;4.13;3.17;;;22.20;99.90;;;;;;5033159;28;20460;-70
2022/06/05 13:19:46;;;;;;;2.90;2.60;;;22.00;99.90;;;;;;5032395;28;20475;-69
2022/06/05 13:22:23;;;;;;;4.70;2.20;;;22.10;99.90;;;;;;5032318;28;20891;-69
2022/06/05 13:24:58;;;;;;;2.90;2.33;;;22.10;99.90;;;;;;5033252;28;21074;-69
2022/06/05 13:27:33;;;;;;;3.90;2.60;;;22.00;99.90;;;;;;5031866;28;20462;-69
2022/06/05 13:30:09;;;;;;;3.60;2.40;;;22.10;99.90;;;;;;5032442;28;20467;-69